Boutte, Louisiana
Current Conditions -  °F | °C
As of 5:53 AM on Sunday 25 Jan 2015 (Local Time) from KMSY Reporting Station
Clear Clear  
Wind Chill: 37°   Ceiling: Unl
Heat Index: 41°   Visibility: 10mi
Dew Point: 39°   Wind: 6mph
Humidity: 93%   Direction: 200°SSW
Pressure: 30.06"   Gusts: NA
Location:  29.9°N, 90.39°W
Report Text: KMSY 251153Z 20005KT 10SM CLR 05/04 A3006 RMK AO2 SLP181 T00500039 10072 20050 55004
Loading
Personal Weather Stations






























Interactive Weather Map New forecast layout! Learn more

10-Day Weather Forecast

Advertisements
Track Severe Weather on mobile